createdAt,value
2023-05-20T00:02:06.671Z,64.23
2023-05-20T00:04:33.373Z,63.67
2023-05-20T00:07:00.035Z,63.63
2023-05-20T00:09:26.895Z,63.94
2023-05-20T00:11:53.475Z,64.35
2023-05-20T00:14:20.093Z,64.11
2023-05-20T00:16:47.019Z,64.42
2023-05-20T00:19:13.759Z,65.52
2023-05-20T00:21:40.563Z,64.46
2023-05-20T00:24:07.135Z,64.51
2023-05-20T00:26:33.818Z,64.67
2023-05-20T00:29:01.148Z,65.06
2023-05-20T00:31:27.752Z,64.73
2023-05-20T00:33:54.435Z,65.70
2023-05-20T00:36:21.097Z,65.82
2023-05-20T00:38:47.878Z,65.87
2023-05-20T00:41:14.502Z,65.76
2023-05-20T00:43:41.500Z,65.54
2023-05-20T00:46:08.747Z,65.96
2023-05-20T00:48:43.830Z,65.84
2023-05-20T00:51:13.031Z,66.87
2023-05-20T00:53:40.034Z,66.64
2023-05-20T00:56:08.153Z,67.03
2023-05-20T00:58:39.019Z,66.94
2023-05-20T01:01:06.595Z,67.18
2023-05-20T01:03:33.781Z,67.33
2023-05-20T01:06:01.163Z,67.71
2023-05-20T01:08:28.569Z,67.62
2023-05-20T01:11:04.987Z,67.45
2023-05-20T01:13:43.183Z,67.88
2023-05-20T01:16:11.543Z,68.36
2023-05-20T01:18:39.569Z,69.10
2023-05-20T01:21:10.542Z,69.05
2023-05-20T01:23:41.535Z,69.04
2023-05-20T01:26:09.308Z,69.01
2023-05-20T01:28:38.684Z,68.63
2023-05-20T01:31:10.978Z,69.34
2023-05-20T01:33:42.064Z,68.62
2023-05-20T01:36:10.111Z,68.50
2023-05-20T01:38:40.069Z,69.31
2023-05-20T01:41:07.381Z,68.32
2023-05-20T01:43:35.045Z,68.44
2023-05-20T01:46:02.906Z,68.48
2023-05-20T01:48:29.648Z,68.41
2023-05-20T01:50:56.440Z,68.90
2023-05-20T01:53:23.175Z,69.30
2023-05-20T01:55:49.865Z,69.28
2023-05-20T01:58:16.559Z,69.36
2023-05-20T02:00:43.856Z,69.92
2023-05-20T02:03:11.273Z,69.87
2023-05-20T02:05:39.166Z,70.05
2023-05-20T02:08:06.391Z,69.78
2023-05-20T02:10:33.235Z,69.76
2023-05-20T02:12:59.845Z,69.58
2023-05-20T02:15:26.521Z,70.50
2023-05-20T02:17:53.840Z,70.15
2023-05-20T02:20:20.569Z,70.01
2023-05-20T02:22:47.186Z,70.32
2023-05-20T02:25:13.931Z,70.46
2023-05-20T02:27:40.783Z,70.68
2023-05-20T02:30:08.358Z,70.20
2023-05-20T02:32:35.841Z,70.37
2023-05-20T02:35:02.548Z,71.58
2023-05-20T02:37:29.593Z,71.80
2023-05-20T02:39:56.304Z,72.02
2023-05-20T02:42:23.009Z,71.89
2023-05-20T02:44:50.193Z,72.84
2023-05-20T02:47:18.070Z,72.73
2023-05-20T02:49:44.827Z,74.25
2023-05-20T02:52:11.565Z,73.96
2023-05-20T02:54:38.715Z,74.11
2023-05-20T02:57:05.581Z,74.44
2023-05-20T02:59:32.258Z,74.30
2023-05-20T03:01:59.112Z,74.91
2023-05-20T03:04:27.044Z,75.45
2023-05-20T03:06:53.835Z,76.13
2023-05-20T03:09:22.460Z,75.81
2023-05-20T03:11:49.841Z,76.10
2023-05-20T03:14:16.879Z,75.83
2023-05-20T03:16:44.136Z,76.09
2023-05-20T03:19:11.015Z,76.96
2023-05-20T03:21:37.768Z,78.25
2023-05-20T03:24:04.749Z,78.30
2023-05-20T03:26:33.245Z,78.98
2023-05-20T03:28:59.840Z,79.10
2023-05-20T03:31:27.379Z,79.82
2023-05-20T03:33:54.136Z,79.24
2023-05-20T03:36:21.085Z,79.50
2023-05-20T03:38:48.277Z,79.55
2023-05-20T03:41:15.012Z,80.33
2023-05-20T03:43:41.839Z,79.89
2023-05-20T03:46:08.523Z,79.60
2023-05-20T03:48:36.125Z,80.30
2023-05-20T03:51:04.132Z,80.10
2023-05-20T03:53:30.967Z,79.83
2023-05-20T03:55:57.661Z,80.40
2023-05-20T03:58:25.254Z,80.36
2023-05-20T04:00:51.998Z,80.56
2023-05-20T04:03:18.859Z,81.26
2023-05-20T04:05:46.582Z,81.00
2023-05-20T04:08:18.939Z,81.30
2023-05-20T04:10:46.417Z,81.65
2023-05-20T04:13:13.162Z,81.06
2023-05-20T04:15:41.461Z,81.44
2023-05-20T04:18:08.629Z,82.40
2023-05-20T04:20:36.039Z,82.31
2023-05-20T04:23:02.678Z,82.42
2023-05-20T04:25:30.060Z,81.69
2023-05-20T04:27:57.719Z,82.55
2023-05-20T04:30:24.644Z,82.82
2023-05-20T04:32:51.918Z,81.82
2023-05-20T04:35:19.300Z,81.82
2023-05-20T04:37:48.318Z,82.13
2023-05-20T04:40:15.574Z,82.04
2023-05-20T04:42:43.555Z,81.66
2023-05-20T04:45:12.418Z,82.10
2023-05-20T04:47:40.420Z,82.07
2023-05-20T04:50:13.485Z,82.22
2023-05-20T04:52:42.950Z,82.01
2023-05-20T04:55:15.867Z,82.06
2023-05-20T04:57:43.613Z,82.44
2023-05-20T05:00:12.595Z,82.63
2023-05-20T05:02:40.216Z,82.74
2023-05-20T05:05:07.738Z,83.26
2023-05-20T05:07:34.529Z,81.89
2023-05-20T05:10:01.701Z,83.54
2023-05-20T05:12:30.376Z,82.67
2023-05-20T05:14:58.810Z,82.82
2023-05-20T05:17:26.350Z,81.99
2023-05-20T05:19:53.007Z,81.96
2023-05-20T05:22:19.987Z,82.77
2023-05-20T05:24:47.067Z,83.01
2023-05-20T05:27:13.938Z,83.29
2023-05-20T05:29:40.886Z,83.59
2023-05-20T05:32:07.749Z,83.02
2023-05-20T05:34:34.311Z,82.01
2023-05-20T05:37:01.066Z,81.83
2023-05-20T05:39:27.688Z,81.99
2023-05-20T05:41:56.203Z,82.06
2023-05-20T05:44:23.113Z,81.97
2023-05-20T05:46:49.754Z,82.14
2023-05-20T05:49:17.193Z,82.15
2023-05-20T05:51:44.392Z,81.32
2023-05-20T05:54:11.506Z,81.29
2023-05-20T05:56:38.174Z,80.07
2023-05-20T05:59:05.517Z,80.31
2023-05-20T06:01:32.194Z,80.07
2023-05-20T06:03:59.758Z,79.40
2023-05-20T06:06:26.912Z,79.18
2023-05-20T06:08:54.076Z,79.86
2023-05-20T06:11:21.760Z,80.32
2023-05-20T06:13:48.504Z,79.53
2023-05-20T06:16:15.596Z,78.78
2023-05-20T06:18:43.030Z,79.91
2023-05-20T06:21:09.704Z,80.88
2023-05-20T06:23:36.763Z,79.94
2023-05-20T06:26:05.869Z,80.82
2023-05-20T06:28:32.766Z,79.93
2023-05-20T06:30:59.447Z,80.12
2023-05-20T06:33:28.541Z,79.57
2023-05-20T06:36:01.667Z,79.93
2023-05-20T06:38:28.719Z,78.95
2023-05-20T06:40:56.083Z,79.45
2023-05-20T06:43:22.903Z,77.93
2023-05-20T06:46:02.381Z,78.28
2023-05-20T06:48:35.161Z,77.77
2023-05-20T06:51:01.869Z,78.34
2023-05-20T06:53:28.536Z,78.36
2023-05-20T06:55:58.153Z,77.34
2023-05-20T06:58:25.906Z,77.05
2023-05-20T07:00:54.874Z,76.89
2023-05-20T07:03:21.714Z,76.76
2023-05-20T07:05:48.471Z,75.23
2023-05-20T07:08:15.334Z,75.87
2023-05-20T07:10:42.276Z,75.22
2023-05-20T07:13:08.988Z,75.84
2023-05-20T07:15:35.917Z,76.07
2023-05-20T07:18:02.945Z,75.80
2023-05-20T07:20:29.773Z,75.25
2023-05-20T07:22:58.397Z,75.48
2023-05-20T07:25:32.357Z,75.89
2023-05-20T07:28:00.469Z,75.33
2023-05-20T07:30:27.473Z,75.98
2023-05-20T07:33:10.142Z,75.25
2023-05-20T07:35:37.118Z,76.32
2023-05-20T07:38:03.868Z,75.56
2023-05-20T07:40:30.983Z,75.93
2023-05-20T07:42:57.623Z,76.20
2023-05-20T07:45:25.729Z,75.41
2023-05-20T07:47:52.453Z,75.83
2023-05-20T07:50:19.207Z,75.51
2023-05-20T07:52:55.902Z,75.93
2023-05-20T07:55:25.235Z,75.15
2023-05-20T07:57:52.291Z,74.97
2023-05-20T08:00:19.870Z,75.98
2023-05-20T08:02:46.579Z,74.42
2023-05-20T08:05:18.280Z,74.57
2023-05-20T08:07:46.398Z,75.50
2023-05-20T08:10:14.820Z,75.49
2023-05-20T08:12:42.725Z,74.34
2023-05-20T08:15:09.974Z,75.20
2023-05-20T08:17:38.677Z,74.93
2023-05-20T08:20:08.153Z,74.18
2023-05-20T08:22:37.522Z,75.05
2023-05-20T08:25:04.689Z,74.15
2023-05-20T08:27:31.554Z,74.36
2023-05-20T08:30:00.595Z,73.84
2023-05-20T08:32:28.036Z,75.28
2023-05-20T08:34:54.711Z,74.22
2023-05-20T08:37:21.966Z,73.21
2023-05-20T08:39:49.993Z,72.89
2023-05-20T08:42:21.772Z,72.11
2023-05-20T08:44:48.626Z,72.13
2023-05-20T08:47:15.487Z,72.62
2023-05-20T08:49:42.358Z,70.88
2023-05-20T08:52:11.434Z,69.74
2023-05-20T08:54:48.579Z,68.39
2023-05-20T08:57:15.732Z,67.96
2023-05-20T08:59:49.803Z,66.68
2023-05-20T09:02:17.478Z,65.78
2023-05-20T09:04:44.196Z,64.94
2023-05-20T09:07:10.923Z,65.27
2023-05-20T09:09:37.659Z,64.55
2023-05-20T09:12:04.772Z,62.34
2023-05-20T09:14:31.883Z,61.25
2023-05-20T09:16:58.658Z,60.32
2023-05-20T09:19:26.383Z,61.36
2023-05-20T09:21:54.850Z,58.49
2023-05-20T09:24:25.196Z,59.42
2023-05-20T09:26:52.729Z,59.00
2023-05-20T09:29:22.316Z,57.34
2023-05-20T09:31:50.176Z,57.09
2023-05-20T09:34:17.782Z,57.50
2023-05-20T09:36:45.245Z,57.31
2023-05-20T09:39:17.179Z,57.53
2023-05-20T09:41:55.434Z,56.39
2023-05-20T09:44:23.408Z,57.03
2023-05-20T09:46:50.923Z,56.90
2023-05-20T09:49:20.884Z,56.10
2023-05-20T09:51:48.260Z,55.93
2023-05-20T09:54:17.979Z,59.40
2023-05-20T09:56:46.346Z,55.36
2023-05-20T09:59:16.396Z,56.39
2023-05-20T10:01:45.071Z,56.43
2023-05-20T10:04:16.179Z,56.72
2023-05-20T10:07:30.528Z,56.09
2023-05-20T10:10:18.875Z,55.27
2023-05-20T10:13:22.929Z,59.10
2023-05-20T10:16:16.162Z,55.24
2023-05-20T10:19:22.769Z,56.88
2023-05-20T10:22:02.693Z,53.74
2023-05-20T10:24:34.402Z,52.81
2023-05-20T10:27:07.823Z,52.77
2023-05-20T10:29:52.036Z,52.02
2023-05-20T10:32:29.832Z,52.15
2023-05-20T10:35:05.498Z,53.37
2023-05-20T10:37:34.617Z,54.35
2023-05-20T10:40:14.140Z,55.00
2023-05-20T10:42:43.064Z,54.40
2023-05-20T10:45:10.637Z,54.89
2023-05-20T10:47:42.126Z,54.60
2023-05-20T10:50:26.604Z,54.47
2023-05-20T10:52:53.379Z,53.91
2023-05-20T10:55:22.364Z,53.11
2023-05-20T10:57:48.985Z,53.33
2023-05-20T11:00:18.728Z,53.68
2023-05-20T11:02:46.300Z,52.36
2023-05-20T11:05:14.662Z,51.54
2023-05-20T11:07:41.442Z,51.29
2023-05-20T11:10:11.923Z,52.41
2023-05-20T11:12:39.611Z,53.69
2023-05-20T11:15:06.750Z,55.00
2023-05-20T11:17:33.390Z,54.67
2023-05-20T11:20:01.075Z,54.13
2023-05-20T11:22:27.753Z,54.59
2023-05-20T11:24:54.400Z,55.34
2023-05-20T11:27:21.456Z,56.00
2023-05-20T11:29:50.971Z,55.45
2023-05-20T11:32:20.722Z,55.40
2023-05-20T11:34:51.733Z,55.64
2023-05-20T11:37:18.914Z,55.64
2023-05-20T11:39:46.147Z,55.84
2023-05-20T11:42:15.306Z,56.00
2023-05-20T11:44:45.425Z,54.90
2023-05-20T11:47:12.116Z,54.67
2023-05-20T11:49:41.767Z,54.92
2023-05-20T11:52:11.099Z,55.77
2023-05-20T11:54:37.676Z,55.51
2023-05-20T11:57:06.881Z,56.03
2023-05-20T11:59:33.704Z,56.05
2023-05-20T12:02:00.301Z,56.52
2023-05-20T12:04:27.302Z,56.70
2023-05-20T12:06:54.111Z,57.16
2023-05-20T12:09:22.711Z,56.09
2023-05-20T12:11:49.411Z,53.79
2023-05-20T12:14:16.385Z,55.32
2023-05-20T12:16:43.097Z,55.34
2023-05-20T12:19:09.806Z,56.03
2023-05-20T12:21:36.668Z,54.54
2023-05-20T12:24:05.317Z,54.73
2023-05-20T12:26:33.329Z,54.52
2023-05-20T12:28:59.997Z,55.70
2023-05-20T12:31:26.714Z,54.65
2023-05-20T12:33:53.412Z,54.84
2023-05-20T12:36:20.286Z,55.03
2023-05-20T12:38:47.399Z,54.42
2023-05-20T12:41:14.162Z,56.58
2023-05-20T12:43:40.784Z,52.35
2023-05-20T12:46:07.702Z,52.30
2023-05-20T12:48:34.500Z,53.36
2023-05-20T12:51:01.435Z,53.56
2023-05-20T12:53:28.059Z,54.72
2023-05-20T12:55:55.195Z,52.09
2023-05-20T12:58:21.914Z,51.81
2023-05-20T13:00:48.774Z,52.56
2023-05-20T13:03:15.661Z,52.29
2023-05-20T13:05:42.345Z,54.24
2023-05-20T13:08:10.158Z,52.88
2023-05-20T13:10:37.273Z,52.99
2023-05-20T13:13:04.413Z,53.36
2023-05-20T13:15:33.020Z,54.83
2023-05-20T13:18:01.507Z,55.03
2023-05-20T13:20:29.077Z,54.88
2023-05-20T13:22:55.715Z,59.29
2023-05-20T13:25:22.360Z,55.68
2023-05-20T13:27:49.055Z,56.08
2023-05-20T13:30:17.343Z,57.40
2023-05-20T13:32:44.025Z,55.33
2023-05-20T13:35:14.620Z,55.37
2023-05-20T13:37:41.399Z,54.86
2023-05-20T13:40:09.394Z,54.92
2023-05-20T13:42:38.146Z,55.36
2023-05-20T13:45:05.151Z,56.35
2023-05-20T13:47:32.202Z,55.82
2023-05-20T13:50:01.307Z,56.28
2023-05-20T13:52:29.432Z,55.55
2023-05-20T13:54:56.056Z,55.67
2023-05-20T13:57:23.459Z,54.42
2023-05-20T13:59:51.027Z,54.10
2023-05-20T14:02:17.984Z,54.44
2023-05-20T14:04:46.905Z,54.93
2023-05-20T14:07:13.922Z,54.70
2023-05-20T14:09:40.734Z,54.67
2023-05-20T14:12:07.585Z,56.99
2023-05-20T14:14:34.256Z,54.67
2023-05-20T14:17:00.914Z,55.67
2023-05-20T14:19:27.668Z,55.98
2023-05-20T14:21:54.752Z,57.38
2023-05-20T14:24:23.610Z,58.04
2023-05-20T14:26:50.721Z,57.42
2023-05-20T14:29:17.775Z,57.86
2023-05-20T14:31:44.830Z,57.09
2023-05-20T14:34:11.633Z,56.41
2023-05-20T14:36:38.769Z,57.51
2023-05-20T14:39:05.696Z,56.67
2023-05-20T14:41:32.367Z,57.71
2023-05-20T14:43:59.134Z,57.37
2023-05-20T14:46:27.009Z,57.65
2023-05-20T14:48:53.677Z,58.37
2023-05-20T14:51:20.351Z,57.59
2023-05-20T14:53:46.970Z,57.64
2023-05-20T14:56:13.678Z,58.68
2023-05-20T14:58:40.742Z,58.22
2023-05-20T15:01:07.457Z,57.92
2023-05-20T15:03:34.370Z,60.22
2023-05-20T15:06:01.128Z,59.28
2023-05-20T15:08:27.702Z,60.02
2023-05-20T15:10:54.430Z,58.71
2023-05-20T15:13:21.221Z,58.84
2023-05-20T15:15:47.812Z,59.02
2023-05-20T15:18:14.513Z,59.15
2023-05-20T15:20:41.532Z,59.03
2023-05-20T15:23:08.502Z,59.92
2023-05-20T15:25:35.961Z,60.72
2023-05-20T15:28:02.972Z,60.22
2023-05-20T15:30:29.600Z,59.96
2023-05-20T15:32:57.093Z,59.44
2023-05-20T15:35:23.780Z,61.21
2023-05-20T15:37:50.725Z,62.12
2023-05-20T15:40:18.166Z,62.90
2023-05-20T15:42:45.055Z,62.65
2023-05-20T15:45:11.930Z,62.91
2023-05-20T15:47:40.717Z,63.89
2023-05-20T15:50:08.631Z,65.16
2023-05-20T15:52:35.471Z,64.82
2023-05-20T15:55:02.461Z,63.35
2023-05-20T15:57:30.635Z,63.51
2023-05-20T15:59:57.618Z,64.61
2023-05-20T16:02:24.934Z,64.48
2023-05-20T16:04:52.323Z,64.88
2023-05-20T16:07:19.235Z,65.15
2023-05-20T16:09:46.401Z,66.21
2023-05-20T16:12:13.060Z,65.08
2023-05-20T16:14:39.862Z,64.85
2023-05-20T16:17:06.425Z,64.59
2023-05-20T16:19:33.307Z,64.27
2023-05-20T16:22:00.197Z,64.51
2023-05-20T16:24:27.016Z,64.87
2023-05-20T16:26:54.105Z,65.35
2023-05-20T16:29:20.925Z,66.28
2023-05-20T16:31:47.795Z,65.34
2023-05-20T16:34:15.772Z,66.85
2023-05-20T16:36:42.356Z,67.23
2023-05-20T16:39:09.061Z,66.98
2023-05-20T16:41:35.758Z,67.30
2023-05-20T16:44:02.470Z,67.48
2023-05-20T16:46:29.204Z,67.72
2023-05-20T16:48:56.039Z,66.86
2023-05-20T16:51:23.794Z,66.88
2023-05-20T16:53:50.599Z,68.45
2023-05-20T16:56:17.401Z,69.52
2023-05-20T16:58:44.042Z,68.68
2023-05-20T17:01:10.684Z,69.53
2023-05-20T17:03:37.285Z,69.34
2023-05-20T17:06:04.020Z,69.34
2023-05-20T17:08:30.796Z,69.15
2023-05-20T17:10:59.655Z,69.53
2023-05-20T17:13:26.413Z,70.24
2023-05-20T17:15:53.131Z,69.00
2023-05-20T17:18:19.887Z,67.85
2023-05-20T17:20:46.546Z,68.89
2023-05-20T17:23:14.776Z,68.59
2023-05-20T17:25:41.453Z,68.97
2023-05-20T17:28:08.241Z,68.58
2023-05-20T17:30:35.054Z,69.65
2023-05-20T17:33:01.901Z,69.94
2023-05-20T17:35:28.775Z,70.68
2023-05-20T17:37:55.529Z,70.42
2023-05-20T17:40:22.388Z,70.18
2023-05-20T17:42:49.107Z,70.41
2023-05-20T17:45:19.234Z,69.35
2023-05-20T17:47:45.977Z,71.01
2023-05-20T17:50:14.641Z,71.17
2023-05-20T17:52:41.405Z,71.05
2023-05-20T17:55:08.885Z,71.78
2023-05-20T17:57:35.598Z,71.63
2023-05-20T18:00:02.349Z,72.08
2023-05-20T18:02:31.860Z,72.32
2023-05-20T18:04:58.662Z,72.51
2023-05-20T18:07:26.474Z,72.84
2023-05-20T18:09:53.077Z,72.67
2023-05-20T18:12:19.712Z,71.66
2023-05-20T18:14:46.546Z,71.84
2023-05-20T18:17:13.193Z,72.46
2023-05-20T18:19:39.887Z,71.97
2023-05-20T18:22:07.324Z,73.22
2023-05-20T18:24:34.026Z,74.40
2023-05-20T18:27:01.014Z,73.73
2023-05-20T18:29:27.604Z,73.41
2023-05-20T18:31:54.339Z,73.70
2023-05-20T18:34:21.286Z,73.79
2023-05-20T18:36:48.454Z,74.49
2023-05-20T18:39:20.227Z,74.68
2023-05-20T18:41:47.766Z,75.02
2023-05-20T18:44:15.542Z,75.08
2023-05-20T18:46:42.495Z,76.51
2023-05-20T18:49:13.061Z,76.48
2023-05-20T18:51:40.803Z,76.63
2023-05-20T18:54:07.708Z,76.52
2023-05-20T18:56:34.846Z,77.29
2023-05-20T18:59:01.719Z,76.70
2023-05-20T19:01:28.446Z,77.19
2023-05-20T19:03:55.156Z,76.78
2023-05-20T19:06:21.856Z,76.63
2023-05-20T19:08:49.473Z,76.36
2023-05-20T19:11:16.456Z,75.65
2023-05-20T19:13:43.132Z,76.18
2023-05-20T19:16:09.984Z,75.34
2023-05-20T19:18:36.664Z,75.87
2023-05-20T19:21:03.441Z,75.84
2023-05-20T19:23:30.508Z,76.43
2023-05-20T19:25:57.175Z,75.53
2023-05-20T19:28:23.839Z,75.50
2023-05-20T19:30:50.542Z,76.08
2023-05-20T19:33:17.276Z,76.09
2023-05-20T19:35:43.981Z,76.34
2023-05-20T19:38:10.667Z,76.83
2023-05-20T19:40:37.454Z,76.59
2023-05-20T19:43:04.347Z,76.43
2023-05-20T19:45:31.179Z,76.28
2023-05-20T19:47:58.313Z,76.73
2023-05-20T19:50:25.320Z,76.74
2023-05-20T19:52:52.392Z,77.05
2023-05-20T19:55:19.090Z,76.41
2023-05-20T19:57:47.591Z,76.06
2023-05-20T20:00:15.716Z,76.25
2023-05-20T20:02:42.456Z,76.67
2023-05-20T20:05:10.477Z,76.46
2023-05-20T20:07:37.359Z,76.46
2023-05-20T20:10:04.283Z,77.30
2023-05-20T20:12:30.884Z,77.63
2023-05-20T20:14:57.464Z,77.95
2023-05-20T20:17:24.255Z,77.52
2023-05-20T20:19:53.288Z,78.41
2023-05-20T20:22:20.149Z,78.87
2023-05-20T20:24:47.092Z,78.51
2023-05-20T20:27:13.893Z,78.54
2023-05-20T20:29:43.478Z,78.68
2023-05-20T20:32:10.884Z,80.31
2023-05-20T20:34:37.548Z,80.39
2023-05-20T20:37:04.371Z,79.89
2023-05-20T20:39:31.024Z,79.13
2023-05-20T20:41:58.992Z,79.68
2023-05-20T20:44:26.570Z,80.22
2023-05-20T20:46:55.009Z,80.70
2023-05-20T20:49:23.051Z,80.74
2023-05-20T20:51:50.204Z,80.86
2023-05-20T20:54:16.867Z,81.15
2023-05-20T20:56:45.551Z,80.97
2023-05-20T20:59:13.455Z,80.60
2023-05-20T21:01:41.812Z,80.55
2023-05-20T21:04:09.282Z,80.88
2023-05-20T21:06:37.796Z,81.73
2023-05-20T21:09:04.736Z,81.81
2023-05-20T21:11:31.769Z,81.76
2023-05-20T21:13:58.678Z,82.44
2023-05-20T21:16:25.601Z,82.86
2023-05-20T21:18:52.484Z,82.29
2023-05-20T21:21:21.694Z,82.45
2023-05-20T21:23:50.801Z,83.68
2023-05-20T21:26:17.616Z,83.36
2023-05-20T21:28:44.236Z,83.32
2023-05-20T21:31:10.950Z,83.61
2023-05-20T21:33:37.573Z,83.57
2023-05-20T21:36:04.753Z,83.48
2023-05-20T21:38:31.399Z,83.52
2023-05-20T21:40:58.646Z,83.55
2023-05-20T21:43:25.425Z,83.92
2023-05-20T21:45:52.265Z,83.80
2023-05-20T21:48:18.883Z,84.29
2023-05-20T21:50:45.600Z,84.45
2023-05-20T21:53:12.169Z,83.54
2023-05-20T21:55:39.341Z,83.23
2023-05-20T21:58:05.998Z,83.18
2023-05-20T22:00:32.814Z,83.77
2023-05-20T22:02:59.448Z,84.15
2023-05-20T22:05:26.359Z,83.93
2023-05-20T22:07:53.130Z,83.76
2023-05-20T22:10:20.931Z,84.61
2023-05-20T22:12:47.690Z,83.85
2023-05-20T22:15:17.477Z,84.22
2023-05-20T22:17:44.729Z,84.18
2023-05-20T22:20:12.619Z,84.39
2023-05-20T22:22:39.330Z,84.67
2023-05-20T22:25:06.839Z,84.58
2023-05-20T22:27:34.804Z,84.63
2023-05-20T22:30:01.898Z,85.34
2023-05-20T22:32:28.655Z,85.71
2023-05-20T22:34:58.542Z,85.58
2023-05-20T22:37:28.763Z,85.58
2023-05-20T22:39:56.337Z,85.59
2023-05-20T22:42:23.200Z,86.11
2023-05-20T22:44:50.077Z,86.18
2023-05-20T22:47:16.747Z,86.14
2023-05-20T22:49:44.951Z,86.65
2023-05-20T22:52:11.732Z,86.53
2023-05-20T22:54:38.363Z,87.05
2023-05-20T22:57:05.419Z,86.63
2023-05-20T22:59:32.800Z,87.11
2023-05-20T23:01:59.462Z,87.08
2023-05-20T23:04:26.225Z,87.89
2023-05-20T23:06:53.824Z,88.44
2023-05-20T23:09:21.014Z,88.69
2023-05-20T23:11:47.797Z,89.07
2023-05-20T23:14:14.430Z,88.55
2023-05-20T23:16:42.023Z,88.34
2023-05-20T23:19:09.164Z,89.13
2023-05-20T23:21:37.323Z,90.33
2023-05-20T23:24:04.521Z,89.51
2023-05-20T23:26:31.479Z,90.11
2023-05-20T23:28:58.204Z,90.38
2023-05-20T23:31:26.826Z,90.15
2023-05-20T23:33:54.050Z,90.42
2023-05-20T23:36:22.995Z,91.15
2023-05-20T23:38:49.709Z,91.30
2023-05-20T23:41:16.366Z,91.42
2023-05-20T23:43:43.023Z,91.07
2023-05-20T23:46:09.826Z,90.92
2023-05-20T23:48:36.664Z,90.88
2023-05-20T23:51:03.431Z,91.35
2023-05-20T23:53:30.127Z,92.49
2023-05-20T23:55:56.802Z,92.52
2023-05-20T23:58:23.666Z,93.04
